createdAt,value
2023-01-26T00:00:54.447Z,102477.97
2023-01-26T00:03:22.372Z,102492.25
2023-01-26T00:05:50.962Z,102481.44
2023-01-26T00:08:20.702Z,102490.09
2023-01-26T00:10:51.051Z,102494.75
2023-01-26T00:13:20.255Z,102498.97
2023-01-26T00:15:47.918Z,102500.16
2023-01-26T00:18:15.844Z,102491.06
2023-01-26T00:20:43.461Z,102483.50
2023-01-26T00:23:12.046Z,102494.97
2023-01-26T00:25:43.280Z,102472.13
2023-01-26T00:28:12.295Z,102497.09
2023-01-26T00:30:43.110Z,102492.34
2023-01-26T00:33:13.128Z,102484.97
2023-01-26T00:35:45.083Z,102481.19
2023-01-26T00:38:14.548Z,102485.13
2023-01-26T00:40:41.973Z,102487.41
2023-01-26T00:43:09.401Z,102481.78
2023-01-26T00:45:39.839Z,102472.56
2023-01-26T00:48:07.764Z,102465.53
2023-01-26T00:50:35.881Z,102452.84
2023-01-26T00:53:03.537Z,102455.44
2023-01-26T00:55:34.036Z,102453.72
2023-01-26T00:58:06.558Z,102459.34
2023-01-26T01:00:36.194Z,102463.59
2023-01-26T01:03:03.767Z,102464.28
2023-01-26T01:05:31.898Z,102453.81
2023-01-26T01:07:59.600Z,102441.06
2023-01-26T01:10:30.076Z,102451.88
2023-01-26T01:12:57.707Z,102443.69
2023-01-26T01:15:26.356Z,102447.78
2023-01-26T01:17:53.744Z,102442.84
2023-01-26T01:20:21.399Z,102433.34
2023-01-26T01:22:48.766Z,102447.06
2023-01-26T01:25:16.347Z,102453.44
2023-01-26T01:27:43.818Z,102453.88
2023-01-26T01:30:12.382Z,102450.63
2023-01-26T01:32:40.508Z,102451.94
2023-01-26T01:35:08.398Z,102455.50
2023-01-26T01:37:39.965Z,102460.16
2023-01-26T01:40:13.472Z,102448.88
2023-01-26T01:42:48.007Z,102450.72
2023-01-26T01:45:27.622Z,102447.25
2023-01-26T01:47:56.397Z,102451.25
2023-01-26T01:50:24.656Z,102438.69
2023-01-26T01:52:54.454Z,102428.84
2023-01-26T01:55:21.842Z,102435.66
2023-01-26T01:57:52.929Z,102435.88
2023-01-26T02:00:24.175Z,102442.81
2023-01-26T02:03:13.663Z,102437.41
2023-01-26T02:06:02.999Z,102435.44
2023-01-26T02:08:36.173Z,102413.34
2023-01-26T02:11:10.361Z,102419.09
2023-01-26T02:13:38.387Z,102427.22
2023-01-26T02:16:13.175Z,102421.44
2023-01-26T02:18:41.849Z,102416.28
2023-01-26T02:21:11.182Z,102426.41
2023-01-26T02:24:00.463Z,102424.59
2023-01-26T02:26:30.805Z,102423.47
2023-01-26T02:29:04.128Z,102426.72
2023-01-26T02:31:36.974Z,102429.53
2023-01-26T02:34:06.605Z,102420.00
2023-01-26T02:36:35.056Z,102413.81
2023-01-26T02:39:27.198Z,102427.91
2023-01-26T02:42:14.285Z,102408.09
2023-01-26T02:44:42.218Z,102404.22
2023-01-26T02:47:17.525Z,102412.22
2023-01-26T02:49:50.903Z,102399.91
2023-01-26T02:52:23.718Z,102404.44
2023-01-26T02:55:09.803Z,102398.47
2023-01-26T02:57:38.110Z,102395.09
2023-01-26T03:00:08.995Z,102377.25
2023-01-26T03:02:38.087Z,102392.72
2023-01-26T03:05:08.242Z,102385.13
2023-01-26T03:07:35.998Z,102402.66
2023-01-26T03:10:04.727Z,102398.34
2023-01-26T03:12:32.376Z,102402.97
2023-01-26T03:15:19.362Z,102401.22
2023-01-26T03:17:50.075Z,102400.47
2023-01-26T03:20:36.143Z,102393.72
2023-01-26T03:23:22.318Z,102379.69
2023-01-26T03:26:08.265Z,102389.41
2023-01-26T03:28:35.673Z,102378.59
2023-01-26T03:31:05.859Z,102384.66
2023-01-26T03:33:34.538Z,102379.25
2023-01-26T03:36:01.929Z,102372.38
2023-01-26T03:38:32.406Z,102366.75
2023-01-26T03:41:18.506Z,102369.09
2023-01-26T03:44:05.500Z,102373.44
2023-01-26T03:46:51.634Z,102363.91
2023-01-26T03:49:39.730Z,102372.00
2023-01-26T03:52:27.118Z,102365.06
2023-01-26T03:55:18.683Z,102370.06
2023-01-26T03:57:47.651Z,102364.66
2023-01-26T04:00:30.458Z,102373.34
2023-01-26T04:03:16.705Z,102358.50
2023-01-26T04:06:15.766Z,102369.09
2023-01-26T04:08:49.657Z,102363.91
2023-01-26T04:11:27.265Z,102359.28
2023-01-26T04:14:18.822Z,102352.34
2023-01-26T04:17:11.823Z,102333.66
2023-01-26T04:19:57.843Z,102350.03
2023-01-26T04:22:25.381Z,102345.72
2023-01-26T04:24:53.668Z,102341.59
2023-01-26T04:27:21.200Z,102331.22
2023-01-26T04:29:48.638Z,102341.81
2023-01-26T04:32:17.113Z,102345.47
2023-01-26T04:34:44.645Z,102324.28
2023-01-26T04:37:13.195Z,102326.88
2023-01-26T04:39:41.648Z,102321.78
2023-01-26T04:42:09.050Z,102300.06
2023-01-26T04:44:42.653Z,102318.34
2023-01-26T04:47:11.510Z,102323.75
2023-01-26T04:49:40.400Z,102315.94
2023-01-26T04:52:09.110Z,102323.38
2023-01-26T04:54:37.642Z,102319.03
2023-01-26T04:57:06.081Z,102314.91
2023-01-26T04:59:33.481Z,102315.13
2023-01-26T05:02:02.530Z,102301.06
2023-01-26T05:04:30.194Z,102308.88
2023-01-26T05:06:57.936Z,102314.16
2023-01-26T05:09:26.500Z,102313.38
2023-01-26T05:11:54.318Z,102305.59
2023-01-26T05:14:22.835Z,102309.72
2023-01-26T05:16:50.543Z,102311.66
2023-01-26T05:19:17.927Z,102308.09
2023-01-26T05:21:45.360Z,102313.47
2023-01-26T05:24:18.904Z,102309.16
2023-01-26T05:26:46.531Z,102303.97
2023-01-26T05:29:14.246Z,102319.16
2023-01-26T05:31:42.549Z,102293.75
2023-01-26T05:34:09.858Z,102309.25
2023-01-26T05:36:41.399Z,102301.84
2023-01-26T05:39:11.707Z,102296.06
2023-01-26T05:41:41.185Z,102276.84
2023-01-26T05:44:10.422Z,102308.38
2023-01-26T05:46:39.639Z,102289.91
2023-01-26T05:49:07.511Z,102279.03
2023-01-26T05:51:37.000Z,102289.31
2023-01-26T05:54:05.083Z,102282.09
2023-01-26T05:56:32.448Z,102291.81
2023-01-26T05:59:01.895Z,102283.16
2023-01-26T06:01:35.144Z,102293.56
2023-01-26T06:04:06.732Z,102285.75
2023-01-26T06:06:37.356Z,102282.97
2023-01-26T06:09:05.006Z,102284.31
2023-01-26T06:11:32.860Z,102277.38
2023-01-26T06:14:01.619Z,102277.50
2023-01-26T06:16:29.326Z,102259.81
2023-01-26T06:18:57.840Z,102271.13
2023-01-26T06:21:25.420Z,102249.50
2023-01-26T06:23:55.181Z,102263.47
2023-01-26T06:26:25.295Z,102263.09
2023-01-26T06:28:53.770Z,102264.16
2023-01-26T06:31:34.486Z,102242.44
2023-01-26T06:34:04.135Z,102250.31
2023-01-26T06:36:33.912Z,102251.56
2023-01-26T06:39:01.531Z,102258.78
2023-01-26T06:41:29.645Z,102248.00
2023-01-26T06:43:58.060Z,102260.31
2023-01-26T06:46:28.879Z,102247.16
2023-01-26T06:48:56.445Z,102253.22
2023-01-26T06:51:59.928Z,102266.47
2023-01-26T06:54:27.570Z,102263.97
2023-01-26T06:56:56.034Z,102271.28
2023-01-26T06:59:23.657Z,102271.28
2023-01-26T07:01:52.413Z,102258.09
2023-01-26T07:04:19.954Z,102251.84
2023-01-26T07:06:48.389Z,102246.84
2023-01-26T07:09:15.955Z,102259.56
2023-01-26T07:11:43.571Z,102255.06
2023-01-26T07:14:10.969Z,102234.84
2023-01-26T07:16:39.976Z,102242.06
2023-01-26T07:19:08.420Z,102249.84
2023-01-26T07:21:39.705Z,102256.56
2023-01-26T07:24:09.988Z,102253.97
2023-01-26T07:26:37.535Z,102246.75
2023-01-26T07:29:12.485Z,102241.47
2023-01-26T07:31:42.227Z,102248.59
2023-01-26T07:34:11.016Z,102246.84
2023-01-26T07:36:40.429Z,102253.97
2023-01-26T07:39:08.625Z,102249.66
2023-01-26T07:42:15.235Z,102254.84
2023-01-26T07:44:46.531Z,102247.63
2023-01-26T07:47:26.931Z,102261.94
2023-01-26T07:49:54.971Z,102234.75
2023-01-26T07:52:31.240Z,102245.03
2023-01-26T07:55:17.939Z,102247.53
2023-01-26T07:57:45.527Z,102238.22
2023-01-26T08:00:21.057Z,102240.81
2023-01-26T08:02:55.777Z,102233.03
2023-01-26T08:05:24.758Z,102233.78
2023-01-26T08:08:30.719Z,102255.50
2023-01-26T08:14:46.851Z,102252.72
2023-01-26T08:17:18.196Z,102237.63
2023-01-26T08:19:51.121Z,102230.69
2023-01-26T08:22:19.861Z,102229.25
2023-01-26T08:24:47.455Z,102245.28
2023-01-26T08:27:19.740Z,102251.81
2023-01-26T08:29:49.697Z,102256.31
2023-01-26T08:32:18.516Z,102253.22
2023-01-26T09:17:03.442Z,102270.66
2023-01-26T09:19:35.559Z,102264.75
2023-01-26T09:22:03.533Z,102266.22
2023-01-26T09:24:31.242Z,102258.78
2023-01-26T09:27:09.156Z,102276.84
2023-01-26T09:29:44.015Z,102282.34
2023-01-26T09:32:20.954Z,102273.59
2023-01-26T09:34:52.292Z,102270.97
2023-01-26T09:37:24.137Z,102256.72
2023-01-26T09:39:57.737Z,102237.94
2023-01-26T09:43:05.946Z,102254.06
2023-01-26T09:46:06.086Z,102247.06
2023-01-26T09:48:36.900Z,102256.75
2023-01-26T09:51:15.887Z,102269.13
2023-01-26T09:54:19.378Z,102263.00
2023-01-26T09:56:56.953Z,102253.97
2023-01-26T09:59:58.561Z,102272.75
2023-01-26T10:02:53.365Z,102265.41
2023-01-26T10:05:29.755Z,102271.28
2023-01-26T10:08:10.737Z,102270.19
2023-01-26T10:10:42.337Z,102265.28
2023-01-26T10:13:16.533Z,102279.00
2023-01-26T10:15:48.101Z,102262.44
2023-01-26T10:18:22.819Z,102265.13
2023-01-26T10:21:02.786Z,102253.16
2023-01-26T10:23:37.320Z,102263.00
2023-01-26T10:26:16.285Z,102276.00
2023-01-26T10:28:46.873Z,102257.44
2023-01-26T10:31:20.336Z,102259.69
2023-01-26T10:34:23.440Z,102264.22
2023-01-26T10:36:52.062Z,102260.81
2023-01-26T10:39:29.481Z,102264.16
2023-01-26T10:42:04.486Z,102265.94
2023-01-26T10:44:36.302Z,102250.75
2023-01-26T10:47:15.983Z,102255.50
2023-01-26T10:50:26.261Z,102256.81
2023-01-26T10:53:06.484Z,102262.72
2023-01-26T10:55:39.212Z,102259.53
2023-01-26T10:58:09.052Z,102255.50
2023-01-26T11:00:37.560Z,102240.66
2023-01-26T11:03:25.966Z,102239.09
2023-01-26T11:06:13.471Z,102249.09
2023-01-26T11:08:41.233Z,102232.44
2023-01-26T11:11:30.641Z,102223.84
2023-01-26T11:14:17.682Z,102211.03
2023-01-26T11:17:15.668Z,102211.59
2023-01-26T11:19:57.208Z,102202.75
2023-01-26T11:22:43.797Z,102197.34
2023-01-26T11:25:51.556Z,102197.50
2023-01-26T11:28:41.286Z,102192.41
2023-01-26T11:31:25.516Z,102182.34
2023-01-26T11:34:05.984Z,102177.22
2023-01-26T11:36:36.238Z,102166.75
2023-01-26T11:39:17.470Z,102153.03
2023-01-26T11:42:02.300Z,102142.41
2023-01-26T11:44:47.686Z,102147.88
2023-01-26T11:47:33.775Z,102138.25
2023-01-26T11:50:37.118Z,102128.97
2023-01-26T11:53:31.686Z,102133.44
2023-01-26T11:56:03.751Z,102123.84
2023-01-26T11:58:55.636Z,102117.38
2023-01-26T12:01:38.443Z,102104.00
2023-01-26T12:04:19.042Z,102097.16
2023-01-26T12:06:48.463Z,102095.81
2023-01-26T12:09:23.549Z,102084.63
2023-01-26T12:11:56.005Z,102067.97
2023-01-26T12:14:32.250Z,102072.09
2023-01-26T12:17:36.849Z,102064.91
2023-01-26T12:20:25.343Z,102063.88
2023-01-26T12:23:03.622Z,102058.91
2023-01-26T12:25:49.948Z,102041.41
2023-01-26T12:28:41.163Z,102025.13
2023-01-26T12:31:17.352Z,102030.94
2023-01-26T12:33:54.073Z,102020.50
2023-01-26T12:36:33.570Z,102011.38
2023-01-26T12:39:17.233Z,101988.84
2023-01-26T12:42:10.102Z,101982.38
2023-01-26T12:45:02.362Z,101965.22
2023-01-26T12:47:36.013Z,101960.56
2023-01-26T12:50:41.579Z,101959.94
2023-01-26T12:53:32.589Z,101955.50
2023-01-26T12:56:20.128Z,101926.97
2023-01-26T12:58:50.816Z,101909.78
2023-01-26T13:01:21.311Z,101904.97
2023-01-26T13:04:09.542Z,101913.88
2023-01-26T13:06:37.150Z,101903.44
2023-01-26T13:09:17.237Z,101906.66
2023-01-26T13:11:59.523Z,101897.09
2023-01-26T13:14:38.230Z,101891.88
2023-01-26T13:17:15.988Z,101891.88
2023-01-26T13:19:43.948Z,101868.50
2023-01-26T13:22:24.091Z,101875.84
2023-01-26T13:25:28.266Z,101866.34
2023-01-26T13:27:57.550Z,101862.28
2023-01-26T13:30:26.084Z,101867.63
2023-01-26T13:33:28.788Z,101849.31
2023-01-26T13:35:58.608Z,101854.69
2023-01-26T13:38:35.396Z,101842.94
2023-01-26T13:41:03.754Z,101841.50
2023-01-26T13:43:44.392Z,101832.78
2023-01-26T13:46:34.002Z,101818.38
2023-01-26T13:49:02.303Z,101812.88
2023-01-26T13:51:34.569Z,101820.06
2023-01-26T13:54:17.918Z,101797.91
2023-01-26T13:57:06.833Z,101794.41
2023-01-26T13:59:53.045Z,101795.66
2023-01-26T14:02:28.018Z,101802.94
2023-01-26T14:04:58.540Z,101796.09
2023-01-26T14:07:57.400Z,101798.09
2023-01-26T14:10:27.723Z,101788.53
2023-01-26T14:12:59.317Z,101778.00
2023-01-26T14:15:30.309Z,101783.88
2023-01-26T14:18:04.095Z,101770.00
2023-01-26T14:20:34.324Z,101761.59
2023-01-26T14:23:14.963Z,101785.69
2023-01-26T14:25:47.410Z,101782.28
2023-01-26T14:28:18.339Z,101784.19
2023-01-26T14:30:51.380Z,101770.19
2023-01-26T14:33:20.232Z,101769.88
2023-01-26T14:35:59.396Z,101761.31
2023-01-26T14:38:29.483Z,101744.84
2023-01-26T14:41:00.339Z,101744.84
2023-01-26T14:43:29.091Z,101731.31
2023-01-26T14:46:18.031Z,101718.81
2023-01-26T14:48:54.331Z,101711.75
2023-01-26T14:51:27.171Z,101700.72
2023-01-26T14:54:02.525Z,101708.56
2023-01-26T14:56:41.175Z,101709.44
2023-01-26T14:59:15.364Z,101694.31
2023-01-26T15:01:43.486Z,101698.69
2023-01-26T15:04:32.470Z,101696.00
2023-01-26T15:07:23.922Z,101695.59
2023-01-26T15:09:57.449Z,101710.19
2023-01-26T15:12:27.765Z,101708.22
2023-01-26T15:14:59.254Z,101703.19
2023-01-26T15:17:42.513Z,101696.44
2023-01-26T15:22:57.930Z,101702.91
2023-01-26T15:25:27.587Z,101689.47
2023-01-26T15:27:59.346Z,101689.09
2023-01-26T15:30:35.573Z,101661.63
2023-01-26T15:33:06.369Z,101671.75
2023-01-26T15:35:35.228Z,101677.34
2023-01-26T15:38:07.338Z,101687.84
2023-01-26T15:40:37.214Z,101669.63
2023-01-26T15:43:18.487Z,101667.00
2023-01-26T15:45:49.049Z,101719.78
2023-01-26T15:48:16.789Z,101687.19
2023-01-26T15:50:50.841Z,101683.66
2023-01-26T15:53:24.689Z,101671.84
2023-01-26T15:55:59.258Z,101674.28
2023-01-26T15:58:27.585Z,101670.72
2023-01-26T16:00:56.404Z,101652.53
2023-01-26T16:03:27.876Z,101669.38
2023-01-26T16:05:58.371Z,101670.13
2023-01-26T16:08:37.439Z,101671.38
2023-01-26T16:11:06.900Z,101669.28
2023-01-26T16:13:34.637Z,101673.97
2023-01-26T16:16:02.693Z,101668.28
2023-01-26T16:18:31.954Z,101651.94
2023-01-26T16:21:01.293Z,101659.31
2023-01-26T16:23:42.377Z,101658.22
2023-01-26T16:26:15.688Z,101644.44
2023-01-26T16:28:44.421Z,101650.59
2023-01-26T16:31:14.492Z,101648.28
2023-01-26T16:33:47.768Z,101656.59
2023-01-26T16:36:17.235Z,101640.38
2023-01-26T16:38:45.421Z,101663.78
2023-01-26T16:41:26.732Z,101654.41
2023-01-26T16:43:57.332Z,101646.34
2023-01-26T16:46:55.332Z,101652.22
2023-01-26T16:49:26.812Z,101659.84
2023-01-26T16:51:54.594Z,101648.03
2023-01-26T16:54:32.252Z,101648.56
2023-01-26T16:57:07.972Z,101643.09
2023-01-26T16:59:35.411Z,101633.53
2023-01-26T17:02:31.249Z,101646.50
2023-01-26T17:04:59.493Z,101633.22
2023-01-26T17:07:28.939Z,101639.09
2023-01-26T17:09:57.693Z,101647.19
2023-01-26T17:12:26.135Z,101644.44
2023-01-26T17:14:56.085Z,101635.47
2023-01-26T17:17:25.052Z,101638.03
2023-01-26T17:20:17.679Z,101640.13
2023-01-26T17:22:46.337Z,101639.13
2023-01-26T17:25:16.704Z,101656.09
2023-01-26T17:27:46.731Z,101655.47
2023-01-26T17:30:14.676Z,101668.31
2023-01-26T17:32:51.294Z,101662.88
2023-01-26T17:35:19.214Z,101657.09
2023-01-26T17:37:51.491Z,101666.56
2023-01-26T17:40:19.559Z,101672.91
2023-01-26T17:42:51.191Z,101646.81
2023-01-26T17:45:20.273Z,101656.03
2023-01-26T17:47:47.779Z,101649.03
2023-01-26T17:50:15.592Z,101652.16
2023-01-26T17:52:43.112Z,101649.31
2023-01-26T17:55:11.030Z,101645.16
2023-01-26T17:57:39.872Z,101647.22
2023-01-26T18:00:08.072Z,101634.78
2023-01-26T18:02:38.176Z,101623.16
2023-01-26T18:05:11.420Z,101620.13
2023-01-26T18:07:40.136Z,101622.16
2023-01-26T18:10:08.503Z,101638.59
2023-01-26T18:12:38.978Z,101642.84
2023-01-26T18:15:10.894Z,101626.09
2023-01-26T18:17:39.033Z,101643.34
2023-01-26T18:20:09.792Z,101646.28
2023-01-26T18:22:37.310Z,101648.00
2023-01-26T18:25:05.916Z,101663.34
2023-01-26T18:27:33.453Z,101661.66
2023-01-26T18:30:02.854Z,101681.28
2023-01-26T18:32:30.392Z,101681.41
2023-01-26T18:35:03.296Z,101688.97
2023-01-26T18:37:38.193Z,101681.72
2023-01-26T18:40:13.377Z,101684.78
2023-01-26T18:42:40.952Z,101679.97
2023-01-26T18:45:10.126Z,101684.63
2023-01-26T18:47:42.512Z,101664.66
2023-01-26T18:50:11.313Z,101660.69
2023-01-26T18:52:39.253Z,101654.88
2023-01-26T18:55:13.464Z,101668.84
2023-01-26T18:57:41.203Z,101681.97
2023-01-26T19:00:09.614Z,101653.97
2023-01-26T19:02:44.250Z,101645.78
2023-01-26T19:05:16.233Z,101646.44
2023-01-26T19:07:44.591Z,101658.38
2023-01-26T19:10:14.433Z,101649.88
2023-01-26T19:12:51.355Z,101657.53
2023-01-26T19:15:19.559Z,101664.13
2023-01-26T19:17:48.459Z,101680.84
2023-01-26T19:20:18.515Z,101678.13
2023-01-26T19:22:54.276Z,101670.97
2023-01-26T19:25:26.415Z,101670.41
2023-01-26T19:28:06.295Z,101661.91
2023-01-26T19:30:34.455Z,101664.13
2023-01-26T19:33:22.175Z,101649.06
2023-01-26T19:35:52.683Z,101657.09
2023-01-26T19:38:22.452Z,101659.34
2023-01-26T19:40:50.794Z,101655.75
2023-01-26T19:43:19.773Z,101633.38
2023-01-26T19:46:11.444Z,101635.78
2023-01-26T19:48:41.392Z,101637.16
2023-01-26T19:51:13.353Z,101645.75
2023-01-26T19:53:43.913Z,101639.59
2023-01-26T19:56:22.267Z,101644.03
2023-01-26T19:59:06.895Z,101646.44
2023-01-26T20:01:39.486Z,101635.00
2023-01-26T20:04:11.134Z,101642.31
2023-01-26T20:06:51.573Z,101650.50
2023-01-26T20:15:53.184Z,101647.63
2023-01-26T20:25:00.711Z,101643.03
2023-01-26T20:27:50.535Z,101631.25
2023-01-26T20:33:09.214Z,101640.41
2023-01-26T20:35:37.392Z,101632.22
2023-01-26T20:38:06.656Z,101632.56
2023-01-26T20:40:35.372Z,101626.59
2023-01-26T20:43:03.881Z,101632.06
2023-01-26T20:45:57.235Z,101642.59
2023-01-26T20:48:53.907Z,101658.16
2023-01-26T20:52:15.884Z,101664.44
2023-01-26T20:55:03.000Z,101673.66
2023-01-26T20:57:48.913Z,101661.69
2023-01-26T21:00:50.855Z,101677.72
2023-01-26T21:16:07.536Z,101685.25
2023-01-26T21:24:59.686Z,101700.88
2023-01-26T21:27:46.133Z,101706.09
2023-01-26T21:30:31.448Z,101710.47
2023-01-26T21:33:26.289Z,101699.44
2023-01-26T21:36:39.323Z,101709.59
2023-01-26T21:39:27.723Z,101691.69
2023-01-26T21:42:12.573Z,101699.47
2023-01-26T21:45:09.744Z,101690.66
2023-01-26T21:48:12.193Z,101695.25
2023-01-26T21:51:14.352Z,101686.94
2023-01-26T21:54:12.072Z,101696.47
2023-01-26T21:56:56.931Z,101702.72
2023-01-26T22:02:46.033Z,101688.13
2023-01-26T22:09:17.974Z,101676.69
2023-01-26T22:12:11.869Z,101681.69
2023-01-26T22:15:22.214Z,101675.84
2023-01-26T22:18:07.272Z,101667.16
2023-01-26T22:23:50.406Z,101662.63
2023-01-26T22:30:14.577Z,101656.84
2023-01-26T22:33:10.568Z,101673.47
2023-01-26T22:36:08.601Z,101656.25
2023-01-26T22:41:55.293Z,101667.22
2023-01-26T22:44:24.423Z,101660.38
2023-01-26T22:46:53.072Z,101671.66
2023-01-26T22:49:20.494Z,101667.38
2023-01-26T22:51:48.035Z,101678.50
2023-01-26T22:54:15.816Z,101675.69
2023-01-26T22:56:43.302Z,101670.53
2023-01-26T22:59:11.398Z,101678.00
2023-01-26T23:01:44.355Z,101687.88
2023-01-26T23:04:12.630Z,101684.59
2023-01-26T23:06:41.518Z,101685.44
2023-01-26T23:09:09.359Z,101685.75
2023-01-26T23:11:40.967Z,101689.47
2023-01-26T23:14:08.572Z,101686.75
2023-01-26T23:16:36.314Z,101688.75
2023-01-26T23:19:04.236Z,101689.66
2023-01-26T23:21:32.368Z,101662.41
2023-01-26T23:23:59.953Z,101693.03
2023-01-26T23:26:28.166Z,101693.94
2023-01-26T23:28:56.445Z,101693.50
2023-01-26T23:31:24.146Z,101687.66
2023-01-26T23:33:52.104Z,101683.63
2023-01-26T23:36:21.305Z,101680.22
2023-01-26T23:38:49.080Z,101682.22
2023-01-26T23:41:19.565Z,101691.94
2023-01-26T23:43:48.240Z,101688.34
2023-01-26T23:46:16.009Z,101691.78
2023-01-26T23:48:45.598Z,101673.91
2023-01-26T23:51:17.296Z,101691.50
2023-01-26T23:53:45.297Z,101691.97
2023-01-26T23:56:20.629Z,101688.97
2023-01-26T23:58:48.191Z,101691.84
